Time;durP1;ratioP1;P1;durP2;ratioP2;P2;SDS_P1;SDS_P2;PMS_P1;PMS_P2;Temp;Humidity;BMP_temperature;BMP_pressure;BME280_temperature;BME280_humidity;BME280_pressure;Samples;Min_cycle;Max_cycle;Signal;HPM_P1;HPM_P2
2022/04/02 00:00:20;;;;;;;3.50;1.50;;;;;;;1.12;96.05;100288.31;5961829;29;20058;-89
2022/04/02 00:03:22;;;;;;;2.50;1.40;;;;;;;1.04;97.01;100278.47;5961715;29;20777;-89
2022/04/02 00:06:24;;;;;;;3.95;1.50;;;;;;;0.86;100.00;100282.66;5961396;29;20374;-89
2022/04/02 00:09:26;;;;;;;3.20;1.55;;;;;;;0.86;100.00;100280.09;5966852;29;20050;-89
2022/04/02 00:12:28;;;;;;;2.97;1.50;;;;;;;0.73;100.00;100284.88;5976433;29;20053;-89
2022/04/02 00:15:30;;;;;;;4.25;1.67;;;;;;;0.79;100.00;100281.25;5963430;29;20062;-89
2022/04/02 00:18:32;;;;;;;3.97;1.70;;;;;;;0.76;100.00;100284.75;5965739;29;20039;-89
2022/04/02 00:21:34;;;;;;;2.47;1.65;;;;;;;0.74;100.00;100275.53;5969857;29;20034;-89
2022/04/02 00:24:36;;;;;;;2.15;1.40;;;;;;;0.79;100.00;100283.78;5971410;29;20039;-90
2022/04/02 00:27:38;;;;;;;3.20;1.63;;;;;;;0.73;100.00;100287.44;5975389;29;20130;-89
2022/04/02 00:30:40;;;;;;;3.53;1.50;;;;;;;0.78;100.00;100290.63;5977906;29;20050;-89
2022/04/02 00:33:45;;;;;;;3.33;2.05;;;;;;;1.03;96.16;100279.38;5973889;29;20050;-89
2022/04/02 00:36:46;;;;;;;3.45;1.85;;;;;;;0.84;98.38;100289.50;5975455;29;20428;-89
2022/04/02 00:39:48;;;;;;;2.63;1.58;;;;;;;0.73;100.00;100292.53;5979055;29;20190;-89
2022/04/02 00:42:51;;;;;;;2.72;1.40;;;;;;;0.73;100.00;100300.16;5974381;29;20055;-89
2022/04/02 00:45:54;;;;;;;3.20;1.40;;;;;;;1.01;99.71;100289.63;5985173;29;20523;-89
2022/04/02 00:48:57;;;;;;;3.35;1.50;;;;;;;0.78;100.00;100292.34;5972632;29;20410;-89
2022/04/02 00:51:59;;;;;;;3.50;2.00;;;;;;;0.70;100.00;100299.47;5987219;29;20050;-90
2022/04/02 00:55:01;;;;;;;3.83;1.95;;;;;;;0.72;100.00;100295.13;5975414;29;20043;-89
2022/04/02 00:58:06;;;;;;;2.85;1.55;;;;;;;0.72;100.00;100295.13;5979093;29;20053;-89
2022/04/02 01:01:09;;;;;;;4.88;2.35;;;;;;;0.73;100.00;100302.72;5984871;29;20051;-89
2022/04/02 01:04:12;;;;;;;2.95;1.67;;;;;;;0.63;100.00;100304.81;5983717;29;20071;-90
2022/04/02 01:07:19;;;;;;;3.70;1.60;;;;;;;0.77;100.00;100306.81;5982173;29;20054;-89
2022/04/02 01:10:21;;;;;;;3.03;1.73;;;;;;;0.63;100.00;100315.00;5992947;29;20053;-89
2022/04/02 01:13:25;;;;;;;5.55;1.70;;;;;;;0.51;100.00;100307.03;5985645;29;20066;-90
2022/04/02 01:16:27;;;;;;;1.65;1.55;;;;;;;0.46;100.00;100306.41;5970847;29;20042;-89
2022/04/02 01:19:36;;;;;;;3.65;1.52;;;;;;;0.46;100.00;100307.22;5977932;29;20142;-90
2022/04/02 01:22:49;;;;;;;2.72;1.67;;;;;;;0.33;100.00;100306.91;5973323;29;20111;-90
2022/04/02 01:25:51;;;;;;;2.05;1.38;;;;;;;0.47;100.00;100311.41;5992040;29;20065;-90
2022/04/02 01:29:03;;;;;;;2.45;1.80;;;;;;;0.48;100.00;100314.81;5990677;29;20466;-90
2022/04/02 01:32:14;;;;;;;3.30;1.98;;;;;;;0.60;100.00;100315.13;5963638;29;20057;-89
2022/04/02 01:35:22;;;;;;;3.10;1.67;;;;;;;0.36;100.00;100326.31;5974874;29;20054;-90
2022/04/02 01:38:37;;;;;;;4.53;2.00;;;;;;;0.42;100.00;100316.72;5977789;29;20530;-90
2022/04/02 01:41:39;;;;;;;3.95;1.80;;;;;;;0.35;100.00;100325.50;5976447;29;20054;-90
2022/04/02 01:44:49;;;;;;;3.85;2.03;;;;;;;0.38;100.00;100339.81;5969210;29;20070;-89
2022/04/02 01:47:56;;;;;;;2.95;1.75;;;;;;;0.21;100.00;100332.84;5955630;29;20470;-89
2022/04/02 01:51:09;;;;;;;3.88;1.77;;;;;;;0.17;100.00;100339.78;5976925;29;20055;-89
2022/04/02 01:54:11;;;;;;;4.15;1.73;;;;;;;0.25;100.00;100338.63;5977463;29;20067;-90
2022/04/02 01:57:15;;;;;;;12.25;4.50;;;;;;;0.37;100.00;100344.09;5977809;29;20047;-89
2022/04/02 02:00:20;;;;;;;3.90;2.00;;;;;;;0.31;100.00;100346.84;5978624;29;20379;-89
2022/04/02 02:03:22;;;;;;;4.38;1.77;;;;;;;0.34;100.00;100351.81;5971382;29;20050;-90
2022/04/02 02:06:24;;;;;;;2.70;1.70;;;;;;;0.15;100.00;100358.50;5975868;29;20057;-90
2022/04/02 02:09:26;;;;;;;3.50;1.55;;;;;;;0.23;100.00;100358.25;5976648;29;20077;-90
2022/04/02 02:12:34;;;;;;;4.35;1.85;;;;;;;0.15;100.00;100356.81;5979321;29;20128;-90
2022/04/02 02:15:47;;;;;;;2.72;1.80;;;;;;;-0.01;100.00;100360.81;5975825;29;20109;-90
2022/04/02 02:18:50;;;;;;;2.65;2.28;;;;;;;0.06;100.00;100354.63;5971122;29;20107;-90
2022/04/02 02:21:52;;;;;;;2.83;1.83;;;;;;;-0.18;100.00;100368.25;5966828;29;20062;-90
2022/04/02 02:24:54;;;;;;;2.20;1.70;;;;;;;-0.25;100.00;100375.28;5971613;29;20606;-89
2022/04/02 02:27:56;;;;;;;3.33;1.88;;;;;;;-0.31;100.00;100375.50;5976404;29;20054;-90
2022/04/02 02:31:00;;;;;;;3.50;1.77;;;;;;;-0.49;100.00;100367.66;5975201;29;20068;-89
2022/04/02 02:37:30;;;;;;;2.33;1.80;;;;;;;-0.56;100.00;100381.47;5976720;29;20046;-89
2022/04/02 02:40:45;;;;;;;4.78;2.00;;;;;;;-0.68;100.00;100384.44;5983198;29;20046;-89
2022/04/02 02:43:51;;;;;;;2.10;1.65;;;;;;;-0.64;100.00;100391.09;5990097;29;20428;-90
2022/04/02 02:47:13;;;;;;;3.88;2.15;;;;;;;-0.60;100.00;100389.25;5974821;29;20076;-90
2022/04/02 02:50:17;;;;;;;2.85;1.80;;;;;;;-0.55;100.00;100385.66;5978241;29;20057;-90
2022/04/02 02:53:29;;;;;;;4.03;1.75;;;;;;;-0.67;100.00;100388.66;5976366;29;20047;-89
2022/04/02 02:56:31;;;;;;;5.22;2.38;;;;;;;-0.53;100.00;100383.06;5977779;29;20073;-89
2022/04/02 02:59:34;;;;;;;4.18;2.35;;;;;;;-0.44;100.00;100390.38;5983491;29;20064;-89
2022/04/02 03:02:38;;;;;;;2.92;1.98;;;;;;;-0.13;100.00;100391.81;5975274;29;20599;-90
2022/04/02 03:05:43;;;;;;;3.58;2.08;;;;;;;-0.26;100.00;100394.81;5991113;29;20162;-89
2022/04/02 03:08:46;;;;;;;2.60;1.90;;;;;;;-0.32;100.00;100395.03;5962838;29;20046;-90
2022/04/02 03:11:51;;;;;;;3.10;1.80;;;;;;;-0.55;100.00;100398.38;5978055;29;20681;-89
2022/04/02 03:14:53;;;;;;;6.07;2.72;;;;;;;-0.54;100.00;100391.59;5984820;29;20123;-89
2022/04/02 03:18:03;;;;;;;3.70;2.17;;;;;;;-0.44;100.00;100393.75;5971518;29;20220;-90
2022/04/02 03:21:05;;;;;;;3.33;1.75;;;;;;;-0.41;100.00;100400.44;5959688;29;20050;-89
2022/04/02 03:24:07;;;;;;;2.95;1.95;;;;;;;-0.56;100.00;100403.53;5974616;29;20728;-89
2022/04/02 03:27:12;;;;;;;3.10;2.08;;;;;;;-0.70;100.00;100407.34;5990813;29;20172;-89
2022/04/02 03:30:22;;;;;;;3.08;1.80;;;;;;;-0.81;100.00;100409.44;5978255;29;20085;-89
2022/04/02 03:33:24;;;;;;;2.83;1.90;;;;;;;-0.64;100.00;100413.16;5974086;29;20042;-89
2022/04/02 03:36:29;;;;;;;2.88;1.67;;;;;;;-0.54;100.00;100412.75;5971355;29;20142;-89
2022/04/02 03:39:35;;;;;;;2.90;2.35;;;;;;;-0.56;100.00;100418.78;5981652;29;20058;-89
2022/04/02 03:42:37;;;;;;;6.18;2.85;;;;;;;-0.55;100.00;100417.88;5974364;29;20064;-89
2022/04/02 03:45:43;;;;;;;4.75;1.80;;;;;;;-0.52;100.00;100420.31;5972960;29;20047;-90
2022/04/02 03:48:46;;;;;;;3.45;1.85;;;;;;;-0.39;100.00;100420.75;5939891;29;20053;-89
2022/04/02 03:51:48;;;;;;;3.08;1.67;;;;;;;-0.57;100.00;100419.66;5984452;29;20174;-89
2022/04/02 03:54:54;;;;;;;5.05;2.10;;;;;;;-0.56;100.00;100424.69;5965457;29;20812;-89
2022/04/02 03:57:56;;;;;;;2.97;2.38;;;;;;;-0.57;100.00;100424.72;5969332;29;20094;-89
2022/04/02 04:01:01;;;;;;;4.47;2.00;;;;;;;-0.41;100.00;100436.03;5973963;29;20448;-89
2022/04/02 04:04:05;;;;;;;3.33;2.00;;;;;;;-0.40;100.00;100432.59;5974046;29;20087;-89
2022/04/02 04:07:07;;;;;;;3.20;2.15;;;;;;;-0.56;100.00;100427.22;5975851;29;20053;-89
2022/04/02 04:10:12;;;;;;;4.07;2.10;;;;;;;-0.60;100.00;100425.66;5976459;29;20100;-89
2022/04/02 04:13:22;;;;;;;2.97;2.03;;;;;;;-0.61;100.00;100428.28;5976908;29;20046;-89
2022/04/02 04:16:25;;;;;;;5.50;2.13;;;;;;;-0.67;100.00;100439.50;5978115;29;20061;-89
2022/04/02 04:19:28;;;;;;;4.07;2.00;;;;;;;-0.78;100.00;100442.38;5972042;29;20035;-89
2022/04/02 04:22:30;;;;;;;5.43;2.72;;;;;;;-0.84;100.00;100440.06;5974080;29;20680;-89
2022/04/02 04:25:34;;;;;;;4.35;2.20;;;;;;;-0.71;100.00;100448.91;5991224;29;20058;-89
2022/04/02 04:28:37;;;;;;;3.50;2.17;;;;;;;-0.58;100.00;100448.50;5979922;29;20560;-89
2022/04/02 04:31:40;;;;;;;2.75;1.88;;;;;;;-0.64;100.00;100457.19;5971415;29;20050;-89
2022/04/02 04:34:42;;;;;;;2.92;2.10;;;;;;;-0.57;100.00;100451.00;5967955;29;20244;-89
2022/04/02 04:37:43;;;;;;;4.43;2.55;;;;;;;-0.43;100.00;100461.50;5975865;29;20053;-90
2022/04/02 04:40:53;;;;;;;3.93;2.00;;;;;;;-0.59;100.00;100473.09;5977213;29;20051;-89
2022/04/02 04:43:57;;;;;;;4.57;2.55;;;;;;;-0.73;100.00;100476.09;5970313;29;20051;-89
2022/04/02 04:47:07;;;;;;;4.72;2.25;;;;;;;-0.54;100.00;100471.22;5992347;29;20145;-89
2022/04/02 04:50:17;;;;;;;3.45;2.10;;;;;;;-0.46;100.00;100474.34;5992110;29;20054;-89
2022/04/02 04:53:18;;;;;;;4.10;2.00;;;;;;;-0.38;100.00;100481.69;5970869;29;20489;-89
2022/04/02 04:56:21;;;;;;;4.50;2.40;;;;;;;-0.40;100.00;100488.53;5976548;29;20057;-89
2022/04/02 04:59:24;;;;;;;4.95;2.58;;;;;;;-0.43;100.00;100486.94;5996516;29;20428;-89
2022/04/02 05:02:28;;;;;;;3.55;2.13;;;;;;;-0.53;100.00;100484.75;5975051;29;20045;-89
2022/04/02 05:05:33;;;;;;;5.60;2.38;;;;;;;-0.40;100.00;100497.88;5987089;29;20055;-90
2022/04/02 05:08:41;;;;;;;2.75;2.38;;;;;;;-0.37;100.00;100496.09;5980490;29;20050;-89
2022/04/02 05:11:43;;;;;;;3.25;2.30;;;;;;;-0.37;100.00;100497.78;5974216;29;20052;-90
2022/04/02 05:14:49;;;;;;;2.92;1.98;;;;;;;-0.28;100.00;100500.00;5971779;29;20055;-89
2022/04/02 05:17:56;;;;;;;5.40;2.30;;;;;;;-0.29;100.00;100506.00;5974237;29;20054;-89
2022/04/02 05:20:58;;;;;;;2.72;2.08;;;;;;;-0.30;100.00;100506.88;5989714;29;20128;-89
2022/04/02 05:24:01;;;;;;;3.90;2.17;;;;;;;-0.13;100.00;100512.19;5961542;29;20102;-89
2022/04/02 05:27:03;;;;;;;5.07;2.63;;;;;;;-0.19;100.00;100504.78;5975376;29;20494;-89
2022/04/02 05:30:06;;;;;;;6.72;2.83;;;;;;;-0.12;100.00;100516.41;5976010;29;20401;-89
2022/04/02 05:33:08;;;;;;;4.40;2.58;;;;;;;-0.11;100.00;100515.53;5977744;29;20045;-89
2022/04/02 05:36:31;;;;;;;5.40;2.10;;;;;;;-0.01;100.00;100521.13;5973934;29;20038;-89
2022/04/02 05:39:33;;;;;;;5.00;2.78;;;;;;;0.00;100.00;100522.78;5973820;29;20046;-88
2022/04/02 05:42:35;;;;;;;5.85;2.30;;;;;;;0.13;100.00;100528.28;5979492;29;20179;-89
2022/04/02 05:45:38;;;;;;;3.95;2.22;;;;;;;0.04;100.00;100528.59;5969873;29;20416;-89
2022/04/02 05:48:40;;;;;;;5.03;2.45;;;;;;;0.11;100.00;100537.69;5975020;29;20060;-88
2022/04/02 05:51:42;;;;;;;4.45;2.10;;;;;;;0.19;100.00;100544.13;5970461;29;20051;-89
2022/04/02 05:54:44;;;;;;;3.28;2.50;;;;;;;0.37;100.00;100542.66;5983106;29;20163;-89
2022/04/02 05:57:47;;;;;;;3.35;2.38;;;;;;;0.43;100.00;100549.25;5970547;29;20043;-89
2022/04/02 06:00:49;;;;;;;4.03;2.00;;;;;;;0.42;100.00;100548.41;5968346;29;20476;-89
2022/04/02 06:03:51;;;;;;;3.65;2.25;;;;;;;0.52;100.00;100550.59;5979879;29;20630;-89
2022/04/02 06:06:53;;;;;;;4.30;2.28;;;;;;;0.36;100.00;100555.44;5974461;29;20413;-88
2022/04/02 06:09:54;;;;;;;3.67;2.25;;;;;;;0.49;100.00;100558.38;5973276;29;20057;-88
2022/04/02 06:12:56;;;;;;;4.82;2.50;;;;;;;0.63;100.00;100564.63;5977590;29;20417;-89
2022/04/02 06:15:58;;;;;;;5.15;2.15;;;;;;;0.70;100.00;100567.78;5990467;29;20050;-88
2022/04/02 06:19:01;;;;;;;3.85;2.33;;;;;;;0.86;100.00;100571.38;5972329;29;20077;-89
2022/04/02 06:22:06;;;;;;;5.28;2.70;;;;;;;0.84;100.00;100582.53;5975475;29;20454;-88
2022/04/02 06:25:09;;;;;;;6.70;2.60;;;;;;;0.89;100.00;100575.53;5974783;29;20492;-88
2022/04/02 06:28:11;;;;;;;5.75;2.70;;;;;;;0.97;100.00;100581.19;5970166;29;20536;-88
2022/04/02 06:31:13;;;;;;;4.97;2.40;;;;;;;1.05;100.00;100586.00;5974419;29;20066;-88
2022/04/02 06:34:18;;;;;;;3.80;2.53;;;;;;;1.16;100.00;100593.22;5992332;29;20057;-89
2022/04/02 06:37:20;;;;;;;4.78;2.63;;;;;;;1.20;100.00;100593.03;5989971;29;20135;-88
2022/04/02 06:40:24;;;;;;;2.30;1.92;;;;;;;1.32;98.49;100598.53;5967432;29;20509;-89
2022/04/02 06:43:25;;;;;;;4.00;2.40;;;;;;;1.26;98.99;100595.34;5971135;29;20102;-88
2022/04/02 06:46:38;;;;;;;3.88;2.22;;;;;;;1.34;98.75;100601.84;5972130;29;20098;-89
2022/04/02 06:49:40;;;;;;;3.50;2.30;;;;;;;1.45;96.20;100598.00;5976318;29;20047;-89
2022/04/02 06:52:43;;;;;;;3.67;2.17;;;;;;;1.46;96.10;100598.81;5968733;29;20069;-88
2022/04/02 06:55:46;;;;;;;2.97;2.10;;;;;;;1.55;95.56;100603.56;5986514;29;20055;-88
2022/04/02 06:58:48;;;;;;;3.47;2.20;;;;;;;1.56;98.23;100596.72;5975766;29;20044;-88
2022/04/02 07:01:50;;;;;;;3.95;2.20;;;;;;;1.70;95.98;100599.56;5965006;29;20080;-88
2022/04/02 07:04:52;;;;;;;3.63;2.75;;;;;;;1.82;96.08;100604.16;5965739;29;20062;-88
2022/04/02 07:07:54;;;;;;;4.55;2.60;;;;;;;1.83;96.18;100610.91;5968433;29;20774;-88
2022/04/02 07:10:57;;;;;;;4.65;2.50;;;;;;;1.93;91.87;100619.84;5973919;29;20043;-88
2022/04/02 07:13:59;;;;;;;3.85;2.30;;;;;;;1.94;91.53;100611.31;5967226;29;20049;-88
2022/04/02 07:17:01;;;;;;;3.67;2.22;;;;;;;1.92;93.91;100615.63;5969932;29;20514;-89
2022/04/02 07:20:03;;;;;;;2.97;2.00;;;;;;;1.93;93.51;100614.72;5971414;29;20220;-88
2022/04/02 07:23:09;;;;;;;5.60;2.40;;;;;;;2.14;91.56;100619.84;5968849;29;20484;-88
2022/04/02 07:26:12;;;;;;;6.68;2.75;;;;;;;2.23;90.38;100622.00;5965210;29;20042;-88
2022/04/02 07:29:15;;;;;;;6.47;2.80;;;;;;;2.24;92.54;100633.88;5987260;29;20081;-88
2022/04/02 07:32:17;;;;;;;4.50;2.60;;;;;;;2.34;89.85;100629.22;5966143;29;20042;-88
2022/04/02 07:35:19;;;;;;;5.97;2.15;;;;;;;2.44;89.93;100633.03;5970801;29;20049;-88
2022/04/02 07:38:39;;;;;;;3.33;2.45;;;;;;;2.47;87.29;100632.88;5969237;29;20099;-87
2022/04/02 07:42:19;;;;;;;4.50;2.35;;;;;;;2.58;89.83;100638.38;5973778;29;20121;-87
2022/04/02 07:45:32;;;;;;;4.03;2.38;;;;;;;2.74;89.72;100641.06;5975620;29;20070;-87
2022/04/02 07:48:37;;;;;;;6.47;2.53;;;;;;;2.82;87.81;100647.56;5973455;29;20517;-87
2022/04/02 07:51:39;;;;;;;2.63;1.70;;;;;;;2.83;86.72;100639.81;5965314;29;20202;-87
2022/04/02 07:54:43;;;;;;;4.38;2.30;;;;;;;2.87;86.70;100650.75;5970650;29;20042;-87
2022/04/02 07:57:47;;;;;;;3.78;2.30;;;;;;;2.92;86.32;100651.38;5974500;29;20523;-87
2022/04/02 08:00:54;;;;;;;4.95;3.15;;;;;;;3.04;86.70;100643.13;5961325;29;20054;-87
2022/04/02 08:04:07;;;;;;;4.45;2.13;;;;;;;3.16;84.49;100645.13;5971270;29;20054;-87
2022/04/02 08:07:08;;;;;;;5.53;2.38;;;;;;;3.14;85.28;100649.50;5972106;29;20121;-87
2022/04/02 08:10:12;;;;;;;5.10;2.65;;;;;;;3.15;84.47;100653.69;5969592;29;20047;-87
2022/04/02 08:13:23;;;;;;;7.32;2.45;;;;;;;3.20;87.39;100654.31;5982733;29;20058;-87
2022/04/02 08:16:32;;;;;;;4.45;2.15;;;;;;;3.34;82.78;100655.41;5965125;29;20058;-87
2022/04/02 08:19:36;;;;;;;5.03;2.60;;;;;;;3.28;83.77;100660.78;5958762;29;20085;-87
2022/04/02 08:22:38;;;;;;;4.05;1.85;;;;;;;3.33;84.08;100666.53;5972355;29;20054;-87
2022/04/02 08:25:49;;;;;;;4.75;2.50;;;;;;;3.39;84.01;100673.94;5972497;29;20057;-87
2022/04/02 08:29:32;;;;;;;4.13;2.53;;;;;;;3.42;81.65;100664.38;5971395;29;20066;-87
2022/04/02 08:32:59;;;;;;;6.05;2.63;;;;;;;3.29;82.63;100675.25;5982481;29;20061;-87
2022/04/02 08:36:10;;;;;;;4.22;2.45;;;;;;;3.30;83.48;100661.56;5982021;29;20057;-87
2022/04/02 08:39:27;;;;;;;3.25;2.17;;;;;;;3.32;81.60;100675.94;5971541;29;20073;-87
2022/04/02 08:42:41;;;;;;;4.07;2.22;;;;;;;3.35;82.76;100685.19;5979641;29;20050;-87
2022/04/02 08:46:23;;;;;;;4.65;2.40;;;;;;;3.52;83.06;100680.13;5968568;29;20493;-87
2022/04/02 08:50:10;;;;;;;4.25;2.28;;;;;;;3.65;80.55;100672.69;5968048;29;20055;-87
2022/04/02 08:53:16;;;;;;;3.88;2.40;;;;;;;3.68;76.69;100690.47;5878411;30;20447;-87
2022/04/02 08:56:29;;;;;;;3.65;2.08;;;;;;;3.86;77.90;100691.31;5880673;30;20056;-87
2022/04/02 08:59:40;;;;;;;3.65;2.25;;;;;;;3.90;76.36;100690.28;5880741;30;20181;-87
2022/04/02 09:03:26;;;;;;;3.78;2.28;;;;;;;3.94;74.94;100686.66;5877189;30;20168;-88
2022/04/02 09:06:59;;;;;;;4.72;3.00;;;;;;;4.37;71.98;100689.63;5847743;30;20056;-88
2022/04/02 09:10:21;;;;;;;4.88;2.20;;;;;;;4.62;73.07;100685.81;5852309;30;20839;-87
2022/04/02 09:13:56;;;;;;;3.30;2.30;;;;;;;4.88;70.74;100684.47;5855681;30;20049;-88
2022/04/02 09:17:03;;;;;;;2.45;2.20;;;;;;;4.96;68.87;100695.97;5848056;30;20828;-88
2022/04/02 09:20:14;;;;;;;3.63;2.42;;;;;;;5.11;68.30;100696.09;5853447;30;20167;-88
2022/04/02 09:23:54;;;;;;;2.92;2.10;;;;;;;5.11;66.34;100686.63;5855488;30;20614;-88
2022/04/02 09:27:39;;;;;;;3.53;2.60;;;;;;;4.96;68.23;100690.84;5858221;30;20056;-88
2022/04/02 09:31:02;;;;;;;4.80;2.33;;;;;;;5.13;67.52;100695.09;5931088;29;20105;-88
2022/04/02 09:34:28;;;;;;;4.38;2.45;;;;;;;5.26;68.46;100697.81;5950356;29;20047;-87
2022/04/02 09:38:01;;;;;;;2.25;1.90;;;;;;;5.21;66.24;100699.81;5948905;29;20058;-88
2022/04/02 09:41:43;;;;;;;2.20;1.95;;;;;;;5.10;65.45;100697.00;5948687;29;20058;-88
2022/04/02 09:45:18;;;;;;;4.78;2.28;;;;;;;5.11;66.53;100693.50;5924409;30;20063;-88
2022/04/02 09:48:24;;;;;;;3.83;1.90;;;;;;;5.26;63.81;100702.13;5905797;30;20108;-88
2022/04/02 09:51:34;;;;;;;3.75;2.10;;;;;;;5.30;63.28;100694.19;5922686;30;20052;-89
2022/04/02 09:54:56;;;;;;;3.67;2.15;;;;;;;5.37;62.58;100692.94;5923921;30;21566;-88
2022/04/02 09:58:19;;;;;;;3.10;1.90;;;;;;;5.44;62.57;100690.88;5909064;29;20058;-88
2022/04/02 10:01:27;;;;;;;5.43;2.08;;;;;;;5.25;62.15;100697.94;5924300;30;20055;-88
2022/04/02 10:04:38;;;;;;;2.55;2.17;;;;;;;5.07;60.73;100694.59;5924540;29;20050;-88
2022/04/02 10:08:02;;;;;;;3.00;2.22;;;;;;;5.00;61.73;100693.28;5925806;30;20067;-88
2022/04/02 10:11:06;;;;;;;3.00;1.85;;;;;;;5.01;62.36;100692.34;5910394;30;20054;-88
2022/04/02 10:14:08;;;;;;;2.78;2.10;;;;;;;5.24;61.59;100693.69;5924502;29;20059;-88
2022/04/02 10:17:13;;;;;;;2.65;1.85;;;;;;;5.44;61.99;100684.91;5910647;30;20426;-88
2022/04/02 10:20:19;;;;;;;2.50;1.73;;;;;;;5.79;63.24;100690.66;5916219;29;20054;-88
2022/04/02 10:23:24;;;;;;;1.63;1.52;;;;;;;6.31;58.27;100684.28;5964629;29;20062;-88
2022/04/02 10:26:39;;;;;;;5.43;2.72;;;;;;;6.43;55.46;100686.97;5967231;29;20047;-88
2022/04/02 10:30:11;;;;;;;3.00;1.80;;;;;;;6.43;55.39;100691.28;5967507;29;20107;-88
2022/04/02 10:33:28;;;;;;;2.60;2.00;;;;;;;6.51;54.62;100693.38;5901603;29;20074;-88
2022/04/02 10:36:40;;;;;;;3.42;2.00;;;;;;;6.48;54.95;100686.69;5916051;29;20051;-88
2022/04/02 10:39:56;;;;;;;3.55;2.25;;;;;;;6.53;54.45;100686.41;5918442;29;20051;-88
2022/04/02 10:43:06;;;;;;;3.85;1.70;;;;;;;6.36;56.17;100685.69;5920209;29;20522;-88
2022/04/02 10:46:08;;;;;;;3.40;1.90;;;;;;;5.97;57.69;100684.50;5923853;29;20055;-88
2022/04/02 10:49:20;;;;;;;2.22;2.03;;;;;;;5.71;57.79;100698.78;5926668;29;20640;-87
2022/04/02 10:52:26;;;;;;;2.63;1.92;;;;;;;5.45;58.63;100695.09;5931220;29;20043;-88
2022/04/02 10:55:29;;;;;;;3.65;2.08;;;;;;;5.36;60.30;100698.97;5920098;29;20501;-88
2022/04/02 10:58:37;;;;;;;8.57;3.50;;;;;;;5.43;60.11;100702.03;5922994;29;20493;-88
2022/04/02 11:01:41;;;;;;;5.47;2.40;;;;;;;5.67;59.82;100707.56;5915821;29;20055;-87
2022/04/02 11:05:04;;;;;;;2.45;1.98;;;;;;;6.11;60.20;100695.72;5919241;29;20059;-87
2022/04/02 11:08:16;;;;;;;2.53;1.75;;;;;;;6.51;57.45;100701.09;5921391;29;20138;-88
2022/04/02 11:11:29;;;;;;;4.13;2.22;;;;;;;6.56;54.08;100693.94;5960444;29;20630;-89
2022/04/02 11:14:49;;;;;;;5.10;2.30;;;;;;;6.44;55.39;100687.81;5956645;29;20047;-88
2022/04/02 11:17:57;;;;;;;4.45;1.85;;;;;;;6.40;55.54;100688.88;5962174;29;20191;-88
2022/04/02 11:21:08;;;;;;;4.88;2.40;;;;;;;6.51;58.17;100689.09;5980486;29;20520;-89
2022/04/02 11:24:17;;;;;;;3.78;1.73;;;;;;;6.81;54.03;100689.00;5964201;29;20050;-90
2022/04/02 11:27:24;;;;;;;3.13;1.80;;;;;;;7.05;51.20;100681.50;5982678;29;20308;-90
2022/04/02 11:30:28;;;;;;;1.73;1.63;;;;;;;7.25;52.79;100688.00;5971355;29;20046;-89
2022/04/02 11:33:49;;;;;;;2.08;1.25;;;;;;;6.97;49.45;100690.63;5968641;29;20176;-89
2022/04/02 11:37:01;;;;;;;2.20;1.73;;;;;;;6.64;55.35;100694.34;5978498;29;20133;-89
2022/04/02 11:40:06;;;;;;;2.40;1.50;;;;;;;6.26;53.61;100689.72;5986700;29;20073;-89
2022/04/02 11:43:09;;;;;;;4.00;2.70;;;;;;;5.95;54.66;100693.22;5971589;29;20152;-89
2022/04/02 11:46:13;;;;;;;3.53;2.00;;;;;;;5.73;54.68;100696.94;5968373;29;20057;-90
2022/04/02 11:49:24;;;;;;;3.42;1.85;;;;;;;5.44;55.73;100702.88;5967670;29;20105;-91
2022/04/02 11:52:26;;;;;;;3.25;2.42;;;;;;;5.27;56.92;100702.06;5973127;29;20062;-90
2022/04/02 11:55:34;;;;;;;2.78;1.67;;;;;;;5.57;55.90;100709.81;5973614;29;20050;-90
2022/04/02 11:58:39;;;;;;;7.55;1.80;;;;;;;5.91;54.72;100707.09;5975510;29;20067;-90
2022/04/02 12:01:43;;;;;;;2.70;1.35;;;;;;;6.00;54.05;100702.31;5967845;29;20053;-90
2022/04/02 12:04:48;;;;;;;3.10;1.80;;;;;;;6.14;52.86;100703.28;5968857;29;20832;-91
2022/04/02 12:07:51;;;;;;;3.30;1.85;;;;;;;6.68;54.32;100696.63;5971924;29;20046;-90
2022/04/02 12:11:24;;;;;;;4.25;1.88;;;;;;;7.01;50.35;100699.84;5980528;29;20465;-90
2022/04/02 12:14:39;;;;;;;3.17;1.80;;;;;;;6.84;51.83;100693.94;5967659;29;20054;-91
2022/04/02 12:17:53;;;;;;;3.03;1.70;;;;;;;6.36;49.97;100701.13;5968838;29;20045;-91
2022/04/02 12:21:07;;;;;;;4.10;1.88;;;;;;;5.79;53.10;100704.31;5982180;29;20505;-91
2022/04/02 12:24:13;;;;;;;1.92;1.60;;;;;;;5.35;54.21;100707.59;5967832;29;20184;-91
2022/04/02 12:27:24;;;;;;;2.00;1.73;;;;;;;5.21;56.10;100701.56;5972319;29;20057;-91
2022/04/02 12:30:30;;;;;;;4.75;2.08;;;;;;;5.33;56.04;100699.16;5981186;29;20108;-90
2022/04/02 12:33:34;;;;;;;4.70;1.67;;;;;;;5.50;53.94;100705.13;5976087;29;20047;-91
2022/04/02 12:36:41;;;;;;;3.33;1.88;;;;;;;5.42;53.13;100694.44;5971620;29;20081;-92
2022/04/02 12:39:43;;;;;;;2.03;1.70;;;;;;;5.36;54.54;100695.59;5985306;29;20046;-90
2022/04/02 12:42:45;;;;;;;1.80;1.40;;;;;;;5.47;53.39;100693.28;5970468;29;20049;-91
2022/04/02 12:45:48;;;;;;;2.67;1.60;;;;;;;5.87;54.21;100692.78;5986234;29;20548;-90
2022/04/02 12:48:50;;;;;;;5.32;1.73;;;;;;;6.64;54.80;100682.28;5973755;29;20051;-90
2022/04/02 12:52:20;;;;;;;3.35;2.03;;;;;;;6.83;50.07;100691.47;5976703;29;20133;-91
2022/04/02 12:55:24;;;;;;;2.27;2.00;;;;;;;6.16;50.72;100688.56;5970374;29;20769;-92
2022/04/02 12:58:44;;;;;;;3.45;1.60;;;;;;;5.82;52.19;100705.91;5971197;29;20440;-92
2022/04/02 13:01:47;;;;;;;3.03;1.70;;;;;;;5.50;53.46;100705.94;5974333;29;20045;-91
2022/04/02 13:04:54;;;;;;;4.55;1.73;;;;;;;5.38;53.82;100702.28;5973737;29;20053;-91
2022/04/02 13:08:06;;;;;;;2.83;1.65;;;;;;;5.53;55.36;100712.63;5977401;29;20131;-91
2022/04/02 13:11:10;;;;;;;5.03;1.98;;;;;;;5.73;53.30;100714.94;5975670;29;20050;-91
2022/04/02 13:14:45;;;;;;;2.50;1.88;;;;;;;5.87;51.78;100710.78;5977437;29;20440;-92
2022/04/02 13:21:09;;;;;;;5.97;1.90;;;;;;;6.25;50.60;100706.84;5972060;29;20183;-88
2022/04/02 13:24:35;;;;;;;2.38;1.67;;;;;;;6.57;49.77;100711.03;5971122;29;20117;-88
2022/04/02 13:28:15;;;;;;;2.83;1.80;;;;;;;6.87;48.04;100704.03;5881788;30;20200;-88
2022/04/02 13:31:24;;;;;;;2.78;1.77;;;;;;;6.94;49.33;100699.38;5879093;30;20060;-88
2022/04/02 13:34:43;;;;;;;3.45;2.08;;;;;;;7.05;46.27;100704.66;5883928;30;20060;-88
2022/04/02 13:38:00;;;;;;;2.95;2.20;;;;;;;6.80;47.38;100702.75;5880734;30;20056;-88
2022/04/02 13:41:03;;;;;;;2.28;1.60;;;;;;;6.90;49.67;100697.88;5880916;30;20445;-89
2022/04/02 13:44:16;;;;;;;2.38;1.50;;;;;;;6.78;47.47;100698.63;5882697;30;20848;-89
2022/04/02 13:47:23;;;;;;;6.65;2.13;;;;;;;6.57;49.95;100693.84;5882964;30;20894;-88
2022/04/02 13:50:28;;;;;;;2.60;1.73;;;;;;;6.60;45.10;100688.53;5880448;30;20507;-89
2022/04/02 13:53:38;;;;;;;2.38;1.83;;;;;;;6.98;45.29;100689.69;5862175;30;20085;-89
2022/04/02 13:56:41;;;;;;;2.10;1.60;;;;;;;7.60;43.90;100686.69;5881958;30;20133;-89
2022/04/02 14:00:11;;;;;;;2.53;1.77;;;;;;;8.13;40.95;100693.53;5885167;30;20055;-89
2022/04/02 14:03:20;;;;;;;1.90;1.70;;;;;;;8.50;42.29;100683.38;5886794;29;20958;-89
2022/04/02 14:06:24;;;;;;;2.30;1.77;;;;;;;8.49;41.68;100675.72;5944909;29;20054;-90
2022/04/02 14:09:29;;;;;;;3.80;1.77;;;;;;;8.02;42.27;100690.00;5959145;29;20050;-90
2022/04/02 14:12:37;;;;;;;2.72;1.70;;;;;;;7.47;44.27;100689.22;5969912;29;20549;-89
2022/04/02 14:15:52;;;;;;;2.58;1.85;;;;;;;7.03;43.73;100692.81;5968705;29;20063;-90
2022/04/02 14:19:02;;;;;;;3.88;1.92;;;;;;;6.72;44.77;100689.53;5965567;29;20148;-89
2022/04/02 14:22:05;;;;;;;1.90;1.45;;;;;;;6.80;44.67;100689.06;5972581;29;20046;-89
2022/04/02 14:25:17;;;;;;;3.30;1.98;;;;;;;7.15;44.27;100697.22;5968045;29;20057;-90
2022/04/02 14:28:43;;;;;;;2.08;1.70;;;;;;;7.45;41.87;100689.34;5971588;29;20515;-91
2022/04/02 14:32:36;;;;;;;2.55;1.85;;;;;;;7.70;42.79;100685.16;5973766;29;20038;-89
2022/04/02 14:35:44;;;;;;;3.60;1.92;;;;;;;8.06;42.30;100676.81;5938540;29;20158;-91
2022/04/02 14:39:13;;;;;;;3.15;1.75;;;;;;;7.60;42.49;100687.50;5941686;29;20131;-91
2022/04/02 14:42:39;;;;;;;2.28;1.80;;;;;;;7.46;42.52;100690.16;5938576;29;20039;-89
2022/04/02 14:45:41;;;;;;;3.33;1.75;;;;;;;7.20;43.94;100689.19;5926745;29;20084;-91